DLH664 LZKZ-LKPR
Flight info
| Callsign | DLH664 |
|---|---|
| Flight time | 1h 0m |
| Altitude | 30000 |
| Route | TAKOS DCT VALPI DCT TUMKA DCT VLM |
| Aircraft | A320/M-SDE3FGHIRWY/LB1 |
Departure
| Time | 2026-05-06 18:23 |
|---|---|
| Airport | Košice International Airport (LZKZ) |
Arrival
| Time | 2026-05-06 19:23 |
|---|---|
| Airport | Václav Havel Airport Prague (LKPR) |
| Time | Latitude | Longitude | Altitude | Speed | Heading |
|---|---|---|---|---|---|
| 2026-05-06 18:02 | 48.67226 | 21.23810 | 766 ft | 0 kts | 163° |
| 2026-05-06 18:18 | 48.67207 | 21.23847 | 766 ft | 14 kts | 105° |
| 2026-05-06 18:18 | 48.67187 | 21.24008 | 764 ft | 17 kts | 100° |
| 2026-05-06 18:18 | 48.67198 | 21.24154 | 762 ft | 11 kts | 39° |
| 2026-05-06 18:19 | 48.67255 | 21.24195 | 762 ft | 7 kts | 57° |
| 2026-05-06 18:19 | 48.67255 | 21.24210 | 762 ft | 0 kts | 89° |
| 2026-05-06 18:19 | 48.67255 | 21.24211 | 762 ft | 2 kts | 89° |
| 2026-05-06 18:19 | 48.67238 | 21.24356 | 761 ft | 15 kts | 103° |
| 2026-05-06 18:20 | 48.67277 | 21.24456 | 758 ft | 12 kts | 23° |
| 2026-05-06 18:20 | 48.67359 | 21.24492 | 757 ft | 12 kts | 11° |
| 2026-05-06 18:20 | 48.67444 | 21.24518 | 759 ft | 14 kts | 11° |
| 2026-05-06 18:20 | 48.67548 | 21.24553 | 761 ft | 15 kts | 13° |
| 2026-05-06 18:21 | 48.67631 | 21.24613 | 763 ft | 11 kts | 15° |
| 2026-05-06 18:21 | 48.67638 | 21.24565 | 762 ft | 9 kts | 187° |
| 2026-05-06 18:21 | 48.67570 | 21.24561 | 761 ft | 0 kts | 191° |
| 2026-05-06 18:22 | 48.67511 | 21.24540 | 761 ft | 23 kts | 194° |
| 2026-05-06 18:22 | 48.67160 | 21.24417 | 765 ft | 85 kts | 193° |
| 2026-05-06 18:22 | 48.66390 | 21.24150 | 755 ft | 140 kts | 193° |
| 2026-05-06 18:23 | 48.65330 | 21.23780 | 1024 ft | 161 kts | 193° |
| 2026-05-06 18:23 | 48.64261 | 21.23392 | 1704 ft | 157 kts | 195° |
| 2026-05-06 18:23 | 48.63166 | 21.23007 | 2184 ft | 170 kts | 195° |
| 2026-05-06 18:23 | 48.61959 | 21.22584 | 2500 ft | 190 kts | 195° |
| 2026-05-06 18:24 | 48.60645 | 21.22125 | 3046 ft | 197 kts | 196° |
| 2026-05-06 18:24 | 48.59297 | 21.21657 | 3773 ft | 200 kts | 196° |
| 2026-05-06 18:24 | 48.57940 | 21.21191 | 4592 ft | 201 kts | 196° |
| 2026-05-06 18:24 | 48.56584 | 21.20665 | 5371 ft | 201 kts | 205° |
| 2026-05-06 18:25 | 48.55401 | 21.19402 | 5792 ft | 222 kts | 232° |
| 2026-05-06 18:25 | 48.54830 | 21.17122 | 6191 ft | 249 kts | 262° |
| 2026-05-06 18:25 | 48.55017 | 21.14449 | 6872 ft | 263 kts | 279° |
| 2026-05-06 18:25 | 48.55436 | 21.11747 | 7736 ft | 266 kts | 279° |
| 2026-05-06 18:26 | 48.55873 | 21.09023 | 8631 ft | 268 kts | 280° |
| 2026-05-06 18:26 | 48.56320 | 21.06278 | 9514 ft | 271 kts | 281° |
| 2026-05-06 18:26 | 48.56769 | 21.03539 | 10272 ft | 277 kts | 281° |
| 2026-05-06 18:26 | 48.57248 | 21.00596 | 10552 ft | 300 kts | 281° |
| 2026-05-06 18:27 | 48.57758 | 20.97445 | 10994 ft | 315 kts | 281° |
| 2026-05-06 18:27 | 48.58285 | 20.94193 | 11669 ft | 322 kts | 281° |
| 2026-05-06 18:27 | 48.58822 | 20.90880 | 12368 ft | 328 kts | 281° |
| 2026-05-06 18:27 | 48.59369 | 20.87506 | 13066 ft | 333 kts | 281° |
| 2026-05-06 18:28 | 48.59923 | 20.84077 | 13749 ft | 338 kts | 281° |
| 2026-05-06 18:28 | 48.60484 | 20.80601 | 14392 ft | 343 kts | 281° |
| 2026-05-06 18:28 | 48.61051 | 20.77091 | 15061 ft | 345 kts | 280° |
| 2026-05-06 18:28 | 48.61621 | 20.73547 | 15758 ft | 348 kts | 280° |
| 2026-05-06 18:29 | 48.62189 | 20.69980 | 16421 ft | 351 kts | 280° |
| 2026-05-06 18:29 | 48.62760 | 20.66384 | 17105 ft | 353 kts | 280° |
| 2026-05-06 18:29 | 48.63328 | 20.62811 | 17768 ft | 355 kts | 280° |
| 2026-05-06 18:29 | 48.63907 | 20.59173 | 18397 ft | 358 kts | 280° |
| 2026-05-06 18:30 | 48.64492 | 20.55490 | 18948 ft | 361 kts | 280° |
| 2026-05-06 18:30 | 48.65079 | 20.51785 | 19493 ft | 364 kts | 280° |
| 2026-05-06 18:30 | 48.65671 | 20.48044 | 20044 ft | 367 kts | 280° |
| 2026-05-06 18:30 | 48.66268 | 20.44268 | 20583 ft | 371 kts | 280° |
| 2026-05-06 18:31 | 48.66867 | 20.40466 | 21110 ft | 373 kts | 280° |
| 2026-05-06 18:31 | 48.67468 | 20.36635 | 21616 ft | 377 kts | 280° |
| 2026-05-06 18:31 | 48.68073 | 20.32757 | 22123 ft | 379 kts | 281° |
| 2026-05-06 18:31 | 48.68680 | 20.28857 | 22619 ft | 382 kts | 281° |
| 2026-05-06 18:32 | 48.69287 | 20.24933 | 23124 ft | 385 kts | 280° |
| 2026-05-06 18:32 | 48.69890 | 20.21023 | 23594 ft | 388 kts | 280° |
| 2026-05-06 18:32 | 48.70504 | 20.17041 | 24010 ft | 390 kts | 281° |
| 2026-05-06 18:32 | 48.71121 | 20.13035 | 24431 ft | 392 kts | 281° |
| 2026-05-06 18:33 | 48.71740 | 20.09003 | 24849 ft | 394 kts | 281° |
| 2026-05-06 18:33 | 48.72361 | 20.04958 | 25277 ft | 395 kts | 281° |
| 2026-05-06 18:33 | 48.72985 | 20.00890 | 25689 ft | 397 kts | 281° |
| 2026-05-06 18:33 | 48.73610 | 19.96808 | 26116 ft | 398 kts | 280° |
| 2026-05-06 18:34 | 48.74237 | 19.92720 | 26559 ft | 399 kts | 280° |
| 2026-05-06 18:34 | 48.74864 | 19.88617 | 26961 ft | 401 kts | 280° |
| 2026-05-06 18:34 | 48.75487 | 19.84503 | 27373 ft | 402 kts | 280° |
| 2026-05-06 18:34 | 48.76113 | 19.80360 | 27776 ft | 404 kts | 280° |
| 2026-05-06 18:35 | 48.76738 | 19.76201 | 28154 ft | 405 kts | 280° |
| 2026-05-06 18:35 | 48.77365 | 19.72027 | 28537 ft | 407 kts | 280° |
| 2026-05-06 18:35 | 48.77984 | 19.67886 | 28902 ft | 409 kts | 280° |
| 2026-05-06 18:35 | 48.78614 | 19.63681 | 29273 ft | 411 kts | 280° |
| 2026-05-06 18:36 | 48.79247 | 19.59445 | 29631 ft | 412 kts | 280° |
| 2026-05-06 18:36 | 48.79880 | 19.55195 | 29880 ft | 413 kts | 279° |
| 2026-05-06 18:36 | 48.80501 | 19.51025 | 29888 ft | 396 kts | 279° |
| 2026-05-06 18:36 | 48.81099 | 19.47013 | 29894 ft | 386 kts | 279° |
| 2026-05-06 18:37 | 48.82264 | 19.39119 | 29882 ft | 382 kts | 279° |
| 2026-05-06 18:37 | 48.83413 | 19.31253 | 29882 ft | 382 kts | 279° |
| 2026-05-06 18:38 | 48.84563 | 19.23391 | 29881 ft | 381 kts | 279° |
| 2026-05-06 18:38 | 48.85699 | 19.15535 | 29876 ft | 381 kts | 279° |
| 2026-05-06 18:39 | 48.86823 | 19.07729 | 29897 ft | 381 kts | 279° |
| 2026-05-06 18:40 | 48.88516 | 18.95954 | 29879 ft | 380 kts | 279° |
| 2026-05-06 18:40 | 48.89634 | 18.88113 | 29855 ft | 380 kts | 279° |
| 2026-05-06 18:41 | 48.90745 | 18.80270 | 29851 ft | 380 kts | 278° |
| 2026-05-06 18:41 | 48.91846 | 18.72476 | 29865 ft | 379 kts | 278° |
| 2026-05-06 18:42 | 48.92946 | 18.64641 | 29863 ft | 379 kts | 278° |
| 2026-05-06 18:42 | 48.94042 | 18.56807 | 29858 ft | 378 kts | 278° |
| 2026-05-06 18:43 | 48.95124 | 18.48983 | 29843 ft | 378 kts | 278° |
| 2026-05-06 18:43 | 48.96198 | 18.41214 | 29841 ft | 378 kts | 278° |
| 2026-05-06 18:44 | 48.97270 | 18.33402 | 29826 ft | 377 kts | 278° |
| 2026-05-06 18:44 | 48.98340 | 18.25599 | 29846 ft | 376 kts | 277° |
| 2026-05-06 18:45 | 48.99405 | 18.17800 | 29823 ft | 376 kts | 277° |
| 2026-05-06 18:45 | 49.00465 | 18.09999 | 29817 ft | 376 kts | 277° |
| 2026-05-06 18:46 | 49.01511 | 18.02204 | 29798 ft | 376 kts | 277° |
| 2026-05-06 18:46 | 49.02591 | 17.94408 | 29793 ft | 378 kts | 282° |
| 2026-05-06 18:47 | 49.04126 | 17.86793 | 29807 ft | 378 kts | 282° |
| 2026-05-06 18:47 | 49.05658 | 17.79127 | 29801 ft | 378 kts | 282° |
| 2026-05-06 18:48 | 49.07180 | 17.71463 | 29799 ft | 377 kts | 282° |
| 2026-05-06 18:48 | 49.08706 | 17.63808 | 29793 ft | 377 kts | 282° |
| 2026-05-06 18:49 | 49.10224 | 17.56151 | 29784 ft | 377 kts | 282° |
| 2026-05-06 18:49 | 49.11731 | 17.48501 | 29773 ft | 377 kts | 282° |
| 2026-05-06 18:50 | 49.13225 | 17.40894 | 29774 ft | 376 kts | 281° |
| 2026-05-06 18:50 | 49.14724 | 17.33232 | 29765 ft | 377 kts | 281° |
| 2026-05-06 18:51 | 49.16218 | 17.25578 | 29768 ft | 376 kts | 281° |
| 2026-05-06 18:51 | 49.17709 | 17.17906 | 29760 ft | 376 kts | 281° |
| 2026-05-06 18:52 | 49.19187 | 17.10241 | 29759 ft | 376 kts | 281° |
| 2026-05-06 18:52 | 49.20664 | 17.02566 | 29785 ft | 376 kts | 281° |
| 2026-05-06 18:53 | 49.22138 | 16.94897 | 29777 ft | 376 kts | 281° |
| 2026-05-06 18:53 | 49.23596 | 16.87272 | 29772 ft | 375 kts | 281° |
| 2026-05-06 18:54 | 49.25059 | 16.79610 | 29758 ft | 375 kts | 281° |
| 2026-05-06 18:54 | 49.26508 | 16.71939 | 29751 ft | 375 kts | 281° |
| 2026-05-06 18:55 | 49.27948 | 16.64267 | 29775 ft | 375 kts | 280° |
| 2026-05-06 18:55 | 49.29386 | 16.56587 | 29765 ft | 375 kts | 280° |
| 2026-05-06 18:56 | 49.30823 | 16.48908 | 29751 ft | 375 kts | 280° |
| 2026-05-06 18:56 | 49.32244 | 16.41276 | 29737 ft | 375 kts | 280° |
| 2026-05-06 18:57 | 49.33667 | 16.33586 | 29740 ft | 375 kts | 280° |
| 2026-05-06 18:57 | 49.35090 | 16.25902 | 29731 ft | 375 kts | 280° |
| 2026-05-06 18:58 | 49.36507 | 16.18236 | 29488 ft | 367 kts | 279° |
| 2026-05-06 18:58 | 49.37197 | 16.14500 | 29215 ft | 362 kts | 279° |
| 2026-05-06 18:58 | 49.37878 | 16.10796 | 28925 ft | 359 kts | 279° |
| 2026-05-06 18:58 | 49.38550 | 16.07116 | 28647 ft | 358 kts | 279° |
| 2026-05-06 18:59 | 49.39215 | 16.03444 | 28369 ft | 356 kts | 279° |
| 2026-05-06 18:59 | 49.39876 | 15.99788 | 28095 ft | 355 kts | 279° |
| 2026-05-06 18:59 | 49.40535 | 15.96189 | 27829 ft | 355 kts | 281° |
| 2026-05-06 18:59 | 49.41484 | 15.92655 | 27562 ft | 361 kts | 290° |
| 2026-05-06 19:00 | 49.42654 | 15.89244 | 27295 ft | 361 kts | 290° |
| 2026-05-06 19:00 | 49.43824 | 15.85840 | 27035 ft | 360 kts | 290° |
| 2026-05-06 19:00 | 49.44989 | 15.82441 | 26804 ft | 359 kts | 290° |
| 2026-05-06 19:00 | 49.46148 | 15.79048 | 26546 ft | 358 kts | 290° |
| 2026-05-06 19:01 | 49.47303 | 15.75659 | 26285 ft | 357 kts | 290° |
| 2026-05-06 19:01 | 49.48452 | 15.72277 | 25959 ft | 357 kts | 290° |
| 2026-05-06 19:01 | 49.49598 | 15.68899 | 25486 ft | 355 kts | 290° |
| 2026-05-06 19:01 | 49.50737 | 15.65539 | 25020 ft | 354 kts | 290° |
| 2026-05-06 19:02 | 49.51870 | 15.62185 | 24559 ft | 352 kts | 290° |
| 2026-05-06 19:02 | 49.52997 | 15.58849 | 24121 ft | 350 kts | 290° |
| 2026-05-06 19:02 | 49.54105 | 15.55573 | 23670 ft | 349 kts | 290° |
| 2026-05-06 19:02 | 49.55222 | 15.52268 | 23218 ft | 348 kts | 290° |
| 2026-05-06 19:03 | 49.56333 | 15.48969 | 22705 ft | 346 kts | 290° |
| 2026-05-06 19:03 | 49.57437 | 15.45678 | 22188 ft | 345 kts | 290° |
| 2026-05-06 19:03 | 49.58539 | 15.42389 | 21692 ft | 345 kts | 290° |
| 2026-05-06 19:03 | 49.59639 | 15.39107 | 21225 ft | 344 kts | 291° |
| 2026-05-06 19:04 | 49.60736 | 15.35835 | 20760 ft | 343 kts | 291° |
| 2026-05-06 19:04 | 49.61825 | 15.32579 | 20307 ft | 341 kts | 291° |
| 2026-05-06 19:04 | 49.62913 | 15.29326 | 19866 ft | 340 kts | 291° |
| 2026-05-06 19:04 | 49.63993 | 15.26088 | 19421 ft | 339 kts | 291° |
| 2026-05-06 19:05 | 49.65070 | 15.22859 | 18984 ft | 338 kts | 291° |
| 2026-05-06 19:05 | 49.66139 | 15.19638 | 18563 ft | 336 kts | 291° |
| 2026-05-06 19:05 | 49.67187 | 15.16473 | 18147 ft | 335 kts | 291° |
| 2026-05-06 19:05 | 49.68245 | 15.13277 | 17676 ft | 334 kts | 291° |
| 2026-05-06 19:06 | 49.69299 | 15.10087 | 17193 ft | 333 kts | 291° |
| 2026-05-06 19:06 | 49.70511 | 15.07022 | 16722 ft | 338 kts | 303° |
| 2026-05-06 19:06 | 49.72143 | 15.04379 | 16272 ft | 343 kts | 315° |
| 2026-05-06 19:06 | 49.73968 | 15.01992 | 15807 ft | 343 kts | 315° |
| 2026-05-06 19:07 | 49.75784 | 14.99604 | 15360 ft | 342 kts | 315° |
| 2026-05-06 19:07 | 49.77588 | 14.97215 | 14911 ft | 342 kts | 315° |
| 2026-05-06 19:07 | 49.79386 | 14.94827 | 14470 ft | 340 kts | 315° |
| 2026-05-06 19:07 | 49.81176 | 14.92442 | 14040 ft | 338 kts | 315° |
| 2026-05-06 19:08 | 49.82956 | 14.90071 | 13607 ft | 338 kts | 315° |
| 2026-05-06 19:08 | 49.84734 | 14.87700 | 13141 ft | 337 kts | 315° |
| 2026-05-06 19:08 | 49.86504 | 14.85340 | 12779 ft | 332 kts | 315° |
| 2026-05-06 19:08 | 49.88224 | 14.83048 | 12750 ft | 318 kts | 315° |
| 2026-05-06 19:09 | 49.89874 | 14.80852 | 12757 ft | 309 kts | 315° |
| 2026-05-06 19:09 | 49.91478 | 14.78710 | 12757 ft | 307 kts | 315° |
| 2026-05-06 19:09 | 49.93094 | 14.76545 | 12753 ft | 307 kts | 315° |
| 2026-05-06 19:09 | 49.94711 | 14.74374 | 12762 ft | 308 kts | 315° |
| 2026-05-06 19:10 | 49.96328 | 14.72201 | 12753 ft | 308 kts | 315° |
| 2026-05-06 19:10 | 49.97948 | 14.70023 | 12774 ft | 307 kts | 315° |
| 2026-05-06 19:10 | 49.99560 | 14.67857 | 12757 ft | 306 kts | 315° |
| 2026-05-06 19:10 | 50.01145 | 14.65667 | 12754 ft | 304 kts | 310° |
| 2026-05-06 19:11 | 50.02476 | 14.63144 | 12757 ft | 301 kts | 303° |
| 2026-05-06 19:11 | 50.03739 | 14.60542 | 12753 ft | 301 kts | 303° |
| 2026-05-06 19:11 | 50.05000 | 14.57956 | 12753 ft | 300 kts | 303° |
| 2026-05-06 19:11 | 50.06266 | 14.55362 | 12420 ft | 301 kts | 303° |
| 2026-05-06 19:12 | 50.07517 | 14.52794 | 11980 ft | 303 kts | 303° |
| 2026-05-06 19:12 | 50.08795 | 14.50177 | 11522 ft | 304 kts | 303° |
| 2026-05-06 19:12 | 50.10067 | 14.47592 | 11066 ft | 296 kts | 303° |
| 2026-05-06 19:12 | 50.11304 | 14.45089 | 10626 ft | 287 kts | 303° |
| 2026-05-06 19:13 | 50.12506 | 14.42669 | 10215 ft | 278 kts | 303° |
| 2026-05-06 19:13 | 50.13675 | 14.40323 | 9795 ft | 270 kts | 303° |
| 2026-05-06 19:13 | 50.14814 | 14.38047 | 9358 ft | 264 kts | 303° |
| 2026-05-06 19:13 | 50.15935 | 14.35804 | 8907 ft | 263 kts | 303° |
| 2026-05-06 19:14 | 50.17038 | 14.33588 | 8780 ft | 258 kts | 303° |
| 2026-05-06 19:14 | 50.18133 | 14.31357 | 8758 ft | 259 kts | 303° |
| 2026-05-06 19:14 | 50.19224 | 14.29122 | 8760 ft | 259 kts | 303° |
| 2026-05-06 19:14 | 50.20318 | 14.26879 | 8764 ft | 259 kts | 303° |
| 2026-05-06 19:15 | 50.21395 | 14.24671 | 8764 ft | 259 kts | 303° |
| 2026-05-06 19:15 | 50.22489 | 14.22430 | 8762 ft | 259 kts | 303° |
| 2026-05-06 19:15 | 50.23578 | 14.20203 | 8483 ft | 257 kts | 303° |
| 2026-05-06 19:15 | 50.24665 | 14.17980 | 8114 ft | 257 kts | 303° |
| 2026-05-06 19:16 | 50.25736 | 14.15765 | 7726 ft | 254 kts | 303° |
| 2026-05-06 19:16 | 50.26781 | 14.13592 | 7432 ft | 241 kts | 303° |
| 2026-05-06 19:16 | 50.27758 | 14.11564 | 7179 ft | 228 kts | 303° |
| 2026-05-06 19:16 | 50.28703 | 14.09598 | 6767 ft | 225 kts | 303° |
| 2026-05-06 19:17 | 50.29554 | 14.07581 | 6327 ft | 219 kts | 286° |
| 2026-05-06 19:17 | 50.29678 | 14.05292 | 5881 ft | 211 kts | 252° |
| 2026-05-06 19:17 | 50.28943 | 14.03366 | 5381 ft | 209 kts | 222° |
| 2026-05-06 19:17 | 50.27797 | 14.01965 | 4920 ft | 211 kts | 215° |
| 2026-05-06 19:18 | 50.26548 | 14.00741 | 4452 ft | 214 kts | 200° |
| 2026-05-06 19:18 | 50.25091 | 14.00585 | 4088 ft | 212 kts | 166° |
| 2026-05-06 19:18 | 50.23703 | 14.01365 | 3988 ft | 213 kts | 158° |
| 2026-05-06 19:18 | 50.22407 | 14.02253 | 3985 ft | 201 kts | 156° |
| 2026-05-06 19:19 | 50.21184 | 14.03225 | 3985 ft | 194 kts | 142° |
| 2026-05-06 19:19 | 50.20308 | 14.04739 | 3979 ft | 184 kts | 127° |
| 2026-05-06 19:19 | 50.19555 | 14.06319 | 3948 ft | 180 kts | 127° |
| 2026-05-06 19:19 | 50.18808 | 14.07880 | 3770 ft | 179 kts | 127° |
| 2026-05-06 19:20 | 50.18061 | 14.09440 | 3555 ft | 180 kts | 127° |
| 2026-05-06 19:20 | 50.17306 | 14.11012 | 3326 ft | 182 kts | 126° |
| 2026-05-06 19:20 | 50.16544 | 14.12601 | 3085 ft | 184 kts | 125° |
| 2026-05-06 19:20 | 50.15777 | 14.14196 | 2873 ft | 182 kts | 126° |
| 2026-05-06 19:21 | 50.15033 | 14.15745 | 2604 ft | 174 kts | 125° |
| 2026-05-06 19:21 | 50.14326 | 14.17214 | 2376 ft | 166 kts | 124° |
| 2026-05-06 19:21 | 50.13650 | 14.18617 | 2174 ft | 157 kts | 125° |
| 2026-05-06 19:21 | 50.13008 | 14.19952 | 1940 ft | 155 kts | 124° |
| 2026-05-06 19:22 | 50.12368 | 14.21283 | 1692 ft | 152 kts | 124° |
| 2026-05-06 19:22 | 50.11730 | 14.22594 | 1537 ft | 153 kts | 123° |
| 2026-05-06 19:22 | 50.11095 | 14.23925 | 1317 ft | 153 kts | 125° |
| 2026-05-06 19:22 | 50.10454 | 14.25237 | 1187 ft | 151 kts | 124° |
| 2026-05-06 19:23 | 50.09900 | 14.26409 | 1206 ft | 116 kts | 127° |
| 2026-05-06 19:23 | 50.09510 | 14.27216 | 1214 ft | 60 kts | 126° |
| 2026-05-06 19:23 | 50.09344 | 14.27564 | 1224 ft | 33 kts | 127° |
| 2026-05-06 19:23 | 50.09161 | 14.27945 | 1233 ft | 41 kts | 127° |
| 2026-05-06 19:24 | 50.09121 | 14.28226 | 1249 ft | 22 kts | 56° |
| 2026-05-06 19:24 | 50.09213 | 14.28275 | 1228 ft | 0 kts | 338° |
| 2026-05-06 19:24 | 50.09217 | 14.28273 | 1228 ft | 1 kts | 338° |
| 2026-05-06 19:24 | 50.09229 | 14.28264 | 1227 ft | 3 kts | 334° |
| 2026-05-06 19:25 | 50.09244 | 14.28247 | 1226 ft | 2 kts | 319° |
| 2026-05-06 19:25 | 50.09254 | 14.28233 | 1226 ft | 1 kts | 317° |
| 2026-05-06 19:25 | 50.09257 | 14.28228 | 1226 ft | 0 kts | 317° |
| 2026-05-06 19:26 | 50.09305 | 14.28158 | 1223 ft | 21 kts | 314° |
| 2026-05-06 19:26 | 50.09439 | 14.27947 | 1216 ft | 30 kts | 315° |
| 2026-05-06 19:26 | 50.09582 | 14.27724 | 1209 ft | 30 kts | 315° |
| 2026-05-06 19:27 | 50.09735 | 14.27497 | 1206 ft | 31 kts | 315° |
| 2026-05-06 19:27 | 50.09875 | 14.27274 | 1204 ft | 28 kts | 309° |
| 2026-05-06 19:27 | 50.09991 | 14.27032 | 1205 ft | 28 kts | 307° |
| 2026-05-06 19:27 | 50.10109 | 14.26788 | 1199 ft | 21 kts | 306° |
| 2026-05-06 19:28 | 50.10139 | 14.26727 | 1198 ft | 2 kts | 307° |
| 2026-05-06 19:28 | 50.10220 | 14.26558 | 1196 ft | 20 kts | 307° |
| 2026-05-06 19:28 | 50.10300 | 14.26465 | 1193 ft | 13 kts | 352° |
| 2026-05-06 19:28 | 50.10348 | 14.26556 | 1181 ft | 16 kts | 89° |
| 2026-05-06 19:29 | 50.10349 | 14.26584 | 1184 ft | 0 kts | 88° |